createdAt,value
2023-04-25T08:26:24.345Z,38.4
2023-04-25T08:32:17.932Z,36.5
2023-04-25T08:38:22.498Z,34.3
2023-04-25T08:44:14.605Z,32.1
2023-04-25T08:50:10.973Z,36.8
2023-04-25T08:56:05.459Z,56.2
2023-04-25T09:01:57.603Z,58.4
2023-04-25T09:07:56.164Z,44.4
2023-04-25T09:13:32.586Z,54.8
2023-04-25T09:19:11.940Z,56.6
2023-04-25T09:25:27.777Z,53.9
2023-04-25T09:31:20.617Z,48.3
2023-04-25T09:37:13.811Z,44.3
2023-04-25T09:43:06.733Z,43.7
2023-04-25T09:48:58.680Z,54.2
2023-04-25T09:54:50.325Z,57.9
2023-04-25T10:00:43.314Z,54.7
2023-04-25T10:06:36.367Z,49.5
2023-04-25T10:12:27.364Z,47.1
2023-04-25T10:18:21.348Z,45.4
2023-04-25T10:23:56.848Z,43.6
2023-04-25T10:29:47.273Z,42.1
2023-04-25T10:35:41.188Z,40
2023-04-25T10:41:32.049Z,38.2
2023-04-25T10:47:23.970Z,40.9
2023-04-25T10:53:25.032Z,58.8
2023-04-25T10:59:18.701Z,63.9
2023-04-25T11:05:27.432Z,46.8
2023-04-25T11:11:47.928Z,54.4
2023-04-25T11:17:57.375Z,62.4
2023-04-25T11:23:48.891Z,85
2023-04-25T11:29:42.787Z,45.3
2023-04-25T11:35:35.713Z,42.6
2023-04-25T11:41:27.531Z,40.6
2023-04-25T11:47:30.671Z,47.9
2023-04-25T11:53:28.267Z,56
2023-04-25T11:59:19.076Z,56.8
2023-04-25T12:05:38.220Z,55.1
2023-04-25T12:11:30.036Z,52.9
2023-04-25T12:16:50.955Z,50.8
2023-04-25T12:22:49.474Z,47.2
2023-04-25T12:28:41.394Z,42.1
2023-04-25T12:34:40.811Z,37.3
2023-04-25T12:40:37.028Z,34.8
2023-04-25T12:46:13.181Z,35.9
2023-04-25T12:52:15.499Z,34.6
2023-04-25T12:58:10.649Z,32.8
2023-04-25T13:04:04.372Z,31.4
2023-04-25T13:09:56.636Z,30
2023-04-25T13:15:54.755Z,28.5
2023-04-25T13:21:46.375Z,27
2023-04-25T13:27:23.265Z,25.6
2023-04-25T13:33:00.941Z,24.1
2023-04-25T13:38:37.835Z,22.7
2023-04-25T13:44:14.813Z,21.2
2023-04-25T13:50:39.792Z,19.8
2023-04-25T13:56:17.504Z,19.1
2023-04-25T14:02:10.853Z,20.4
2023-04-25T14:08:04.749Z,24.1
2023-04-25T14:13:55.037Z,28.9
2023-04-25T14:19:31.506Z,30.4
2023-04-25T14:25:24.742Z,31.1
2023-04-25T14:31:15.020Z,31.4
2023-04-25T14:36:51.310Z,31.7
2023-04-25T14:42:43.993Z,31.4
2023-04-25T14:47:49.430Z,31.1
2023-04-25T14:52:54.852Z,31.1
2023-04-25T14:58:16.659Z,31.4
2023-04-25T15:03:37.667Z,31
2023-04-25T15:09:19.266Z,30.5
2023-04-25T15:14:56.377Z,29.6
2023-04-25T15:20:36.920Z,28.6
2023-04-25T15:26:12.593Z,27
2023-04-25T15:31:50.155Z,25.7
2023-04-25T15:37:43.441Z,24.4
2023-04-25T15:43:34.862Z,23.1
2023-04-25T15:49:30.851Z,22.1
2023-04-25T16:00:30.219Z,19.8
2023-04-25T16:06:26.604Z,18.3
2023-04-25T16:12:01.788Z,17.5
2023-04-25T16:17:38.213Z,16.7
2023-04-25T16:23:16.648Z,16.1
2023-04-25T16:28:52.608Z,15.5
2023-04-25T16:34:15.937Z,15
2023-04-25T16:39:53.136Z,14.6
2023-04-25T16:45:29.582Z,14.2
2023-04-25T16:50:50.492Z,13.8
2023-04-25T16:56:27.465Z,13.4
2023-04-25T17:01:50.443Z,13.1
2023-04-25T17:07:43.988Z,12.7
2023-04-25T17:13:21.354Z,12.4
2023-04-25T17:19:07.821Z,12.1
2023-04-25T17:24:13.542Z,11.8
2023-04-25T17:29:35.394Z,11.5
2023-04-25T17:34:25.239Z,11.3
2023-04-25T17:40:00.928Z,11
2023-04-25T17:45:23.425Z,10.8
2023-04-25T17:50:29.197Z,10.6
2023-04-25T17:55:34.631Z,10.4
2023-04-25T18:01:00.181Z,10.2
2023-04-25T18:06:38.667Z,10
2023-04-25T18:11:59.293Z,9.9
2023-04-25T18:17:36.079Z,9.7
2023-04-25T18:23:28.311Z,9.5
2023-04-25T18:28:52.088Z,9.4
2023-04-25T18:34:19.649Z,9.2
2023-04-25T18:40:35.228Z,9
2023-04-25T18:46:55.954Z,8.9
2023-04-25T18:52:21.142Z,8.8
2023-04-25T18:58:13.973Z,8.6
2023-04-25T19:03:53.390Z,8.4
2023-04-25T19:09:32.509Z,8.3
2023-04-25T19:15:20.121Z,8.2
2023-04-25T19:21:13.657Z,8.2
2023-04-25T19:27:11.917Z,8.1
2023-04-25T19:32:49.825Z,8.1
2023-04-25T19:38:27.989Z,8.1
2023-04-25T19:44:07.340Z,8.1
2023-04-25T19:49:31.196Z,8.1
2023-04-25T19:55:08.489Z,8.1
2023-04-25T20:00:47.236Z,8
2023-04-25T20:06:27.110Z,7.9
2023-04-25T20:12:05.429Z,8
2023-04-25T20:17:43.622Z,7.9
2023-04-25T20:23:20.924Z,8
2023-04-25T20:28:58.549Z,8.1
2023-04-25T20:34:54.108Z,8.1
2023-04-25T20:40:45.434Z,8.1
2023-04-25T20:46:21.239Z,8.1
2023-04-25T20:52:13.684Z,8.1
2023-04-25T20:58:06.128Z,8.2
2023-04-25T21:03:42.790Z,8.2
2023-04-25T21:09:19.849Z,8.2
2023-04-25T21:15:11.891Z,8.2
2023-04-25T21:21:04.353Z,8.2
2023-04-25T21:26:40.941Z,8.2
2023-04-25T21:32:32.811Z,8.2
2023-04-25T21:38:09.220Z,8.2
2023-04-25T21:43:45.741Z,8.1
2023-04-25T21:49:51.966Z,8.1
2023-04-25T21:55:28.117Z,8.1
2023-04-25T22:01:20.019Z,8.1
2023-04-25T22:06:58.251Z,8.1
2023-04-25T22:12:31.340Z,8
2023-04-25T22:17:52.978Z,8
2023-04-25T22:23:29.574Z,7.9
2023-04-25T22:29:20.004Z,7.9
2023-04-25T22:35:11.749Z,7.9
2023-04-25T22:41:03.072Z,7.9
2023-04-25T22:46:54.355Z,7.8
